Time;durP1;ratioP1;P1;durP2;ratioP2;P2;SDS_P1;SDS_P2;PMS_P1;PMS_P2;Temp;Humidity;BMP_temperature;BMP_pressure;BME280_temperature;BME280_humidity;BME280_pressure;Samples;Min_cycle;Max_cycle;Signal;HPM_P1;HPM_P2
2023/03/30 00:02:08;;;;;;;1.20;0.90;;;13.70;99.90;;;13.94;98.33;100252.84;5197571;28;20560;-72
2023/03/30 00:04:42;;;;;;;1.50;1.02;;;13.70;99.90;;;13.94;97.68;100245.84;5199028;28;20048;-75
2023/03/30 00:07:15;;;;;;;1.88;1.20;;;13.70;99.90;;;13.95;97.20;100242.38;5201865;28;20048;-72
2023/03/30 00:09:47;;;;;;;1.83;0.90;;;13.80;99.90;;;13.96;97.09;100244.16;5197462;28;20056;-72
2023/03/30 00:12:19;;;;;;;1.45;0.88;;;13.70;99.90;;;13.96;96.25;100248.53;5206814;28;20068;-72
2023/03/30 00:14:52;;;;;;;2.13;1.17;;;13.80;99.90;;;13.96;96.07;100246.78;5206557;28;20045;-73
2023/03/30 00:17:25;;;;;;;1.60;0.88;;;13.80;99.90;;;13.97;95.96;100255.53;5190971;28;20075;-73
2023/03/30 00:20:04;;;;;;;1.65;0.82;;;13.70;99.90;;;13.97;95.52;100242.41;5198552;28;20092;-73
2023/03/30 00:22:37;;;;;;;1.38;0.70;;;13.80;99.90;;;13.97;95.40;100245.03;5207073;28;20521;-73
2023/03/30 00:25:13;;;;;;;2.30;0.95;;;13.80;99.90;;;13.97;95.07;100245.03;5203037;28;20057;-72
2023/03/30 00:27:46;;;;;;;1.38;0.93;;;13.80;99.90;;;13.96;94.70;100244.16;5193634;28;20042;-74
2023/03/30 00:30:19;;;;;;;2.88;1.10;;;13.80;99.90;;;13.96;94.74;100240.66;5201930;28;20532;-73
2023/03/30 00:32:52;;;;;;;1.98;1.02;;;13.80;99.90;;;13.96;94.58;100238.03;5186037;28;20042;-74
2023/03/30 00:35:29;;;;;;;1.60;1.05;;;13.80;99.90;;;13.96;94.25;100219.69;5213649;28;20045;-74
2023/03/30 00:38:02;;;;;;;2.22;1.15;;;13.70;99.90;;;13.96;93.90;100230.19;5197601;28;20065;-72
2023/03/30 00:40:35;;;;;;;2.50;1.10;;;13.80;99.90;;;13.97;93.60;100237.19;5213597;28;20136;-74
2023/03/30 00:43:11;;;;;;;1.98;1.15;;;13.70;99.90;;;13.98;93.21;100245.06;5200929;28;20053;-72
2023/03/30 00:45:43;;;;;;;3.47;1.38;;;13.80;99.90;;;14.01;93.24;100245.06;5185970;28;20072;-70
2023/03/30 00:48:19;;;;;;;4.07;1.10;;;13.80;99.90;;;14.07;92.72;100231.16;5194179;28;20210;-70
2023/03/30 00:50:57;;;;;;;2.55;1.10;;;13.80;99.90;;;14.10;92.32;100223.34;5194027;28;20061;-74
2023/03/30 00:53:34;;;;;;;2.33;1.00;;;13.90;99.90;;;14.11;92.10;100210.25;5216378;28;20053;-74
2023/03/30 00:56:09;;;;;;;3.38;1.48;;;13.90;99.90;;;14.12;91.48;100201.53;5205099;28;20384;-73
2023/03/30 00:58:43;;;;;;;3.10;1.05;;;13.90;99.90;;;14.15;91.42;100189.31;5204433;28;20056;-72
2023/03/30 01:01:24;;;;;;;2.72;1.38;;;13.90;99.90;;;14.15;90.96;100184.97;5220351;28;20049;-72
2023/03/30 01:04:00;;;;;;;4.18;1.25;;;14.00;99.90;;;14.17;90.96;100183.25;5189493;28;20061;-72
2023/03/30 01:06:38;;;;;;;2.25;0.93;;;14.00;99.90;;;14.20;90.37;100175.41;5199097;28;20115;-73
2023/03/30 01:09:12;;;;;;;1.67;1.08;;;14.00;99.90;;;14.24;90.07;100173.69;5219599;28;20139;-70
2023/03/30 01:11:45;;;;;;;2.60;1.40;;;14.00;99.90;;;14.25;89.63;100178.94;5197884;28;20397;-72
2023/03/30 01:14:19;;;;;;;5.60;1.30;;;14.00;99.90;;;14.28;89.72;100186.88;5186376;28;20042;-74
2023/03/30 01:17:01;;;;;;;3.40;1.20;;;14.10;99.90;;;14.29;89.46;100193.84;5200342;28;20574;-73
2023/03/30 01:20:12;;;;;;;3.90;1.30;;;14.10;99.90;;;14.28;89.51;100199.97;5185433;28;20045;-72
2023/03/30 01:23:26;;;;;;;1.88;1.00;;;14.10;99.90;;;14.27;89.54;100200.81;5191727;28;20041;-74
2023/03/30 01:26:34;;;;;;;3.45;1.30;;;14.10;99.90;;;14.28;89.77;100202.59;5170414;28;20549;-73
2023/03/30 01:29:17;;;;;;;4.03;1.60;;;14.10;99.90;;;14.32;89.56;100206.09;5197519;28;20411;-72
2023/03/30 01:32:22;;;;;;;3.08;1.10;;;14.10;99.90;;;14.32;89.51;100209.59;5195687;28;20617;-71
2023/03/30 01:35:31;;;;;;;3.45;1.15;;;14.10;99.90;;;14.34;89.65;100197.41;5195995;28;20046;-73
2023/03/30 01:38:42;;;;;;;2.45;1.08;;;14.20;99.90;;;14.35;89.60;100193.91;5202685;28;20136;-73
2023/03/30 01:41:23;;;;;;;4.75;1.42;;;14.10;99.90;;;14.44;89.47;100189.63;5193259;28;20414;-71
2023/03/30 01:44:06;;;;;;;2.72;1.10;;;14.20;99.90;;;14.46;89.40;100190.50;5200260;28;20041;-73
2023/03/30 01:46:44;;;;;;;3.33;1.38;;;14.20;99.90;;;14.46;89.20;100177.41;5220689;28;20053;-71
2023/03/30 01:49:28;;;;;;;3.80;1.48;;;14.20;99.90;;;14.49;89.40;100164.38;5193087;28;20041;-72
2023/03/30 01:52:06;;;;;;;3.47;1.20;;;14.30;99.90;;;14.49;89.12;100175.72;5183874;28;20061;-74
2023/03/30 01:54:44;;;;;;;3.45;1.10;;;14.30;99.90;;;14.50;89.13;100172.25;5189506;28;20069;-72
2023/03/30 01:57:23;;;;;;;3.88;1.15;;;14.30;99.90;;;14.50;89.21;100179.22;5193053;28;20266;-74
2023/03/30 02:00:01;;;;;;;4.32;1.23;;;14.30;99.90;;;14.51;88.87;100189.72;5199776;28;20443;-73
2023/03/30 02:02:49;;;;;;;4.55;1.33;;;14.30;99.90;;;14.52;89.00;100190.59;5184645;28;20046;-71
2023/03/30 02:05:23;;;;;;;4.53;1.15;;;14.30;99.90;;;14.54;88.76;100187.16;5199563;28;20056;-71
2023/03/30 02:08:00;;;;;;;2.63;1.00;;;14.30;99.90;;;14.57;88.42;100178.41;5203607;28;20044;-72
2023/03/30 02:10:35;;;;;;;1.65;1.05;;;14.40;99.90;;;14.61;88.23;100182.84;5191219;28;20034;-73
2023/03/30 02:13:09;;;;;;;4.38;0.93;;;14.40;99.90;;;14.64;87.96;100159.25;5195052;28;20077;-72
2023/03/30 02:15:53;;;;;;;3.65;1.15;;;14.40;99.90;;;14.67;87.97;100164.53;5204838;28;20144;-73
2023/03/30 02:18:25;;;;;;;2.83;1.20;;;14.40;99.90;;;14.71;88.11;100155.78;5195078;28;20045;-71
2023/03/30 02:20:58;;;;;;;1.83;1.20;;;14.40;99.90;;;14.72;87.80;100156.66;5188108;28;20038;-72
2023/03/30 02:23:35;;;;;;;3.15;1.08;;;14.50;99.90;;;14.77;87.57;100155.84;5203279;28;20132;-72
2023/03/30 02:26:08;;;;;;;3.63;1.35;;;14.50;99.90;;;14.90;87.31;100173.44;5188168;28;20503;-71
2023/03/30 02:28:42;;;;;;;3.72;1.55;;;14.60;99.90;;;14.99;87.03;100162.13;5205648;28;20045;-72
2023/03/30 02:31:15;;;;;;;3.75;1.40;;;14.70;99.90;;;15.01;87.19;100159.53;5207987;28;20049;-71
2023/03/30 02:34:08;;;;;;;3.17;1.27;;;14.70;99.90;;;15.04;86.84;100143.78;5197671;28;20045;-71
2023/03/30 02:37:18;;;;;;;5.28;1.42;;;14.80;99.90;;;15.10;87.27;100149.06;5199096;28;20044;-75
2023/03/30 02:40:12;;;;;;;5.35;1.50;;;14.80;99.90;;;15.15;87.10;100134.25;5183925;28;20441;-73
2023/03/30 02:43:03;;;;;;;2.58;1.27;;;14.90;99.90;;;15.15;86.91;100097.47;5192050;28;20402;-74
2023/03/30 02:45:52;;;;;;;4.63;1.30;;;14.90;99.90;;;15.18;86.99;100093.09;5182814;28;20052;-75
2023/03/30 02:48:36;;;;;;;4.30;1.50;;;14.90;99.90;;;15.23;86.62;100066.88;5207517;28;20046;-74
2023/03/30 02:51:33;;;;;;;4.10;1.38;;;14.90;99.90;;;15.19;86.41;100065.09;5208969;28;20407;-72
2023/03/30 02:54:41;;;;;;;3.70;1.50;;;14.90;99.90;;;15.17;87.13;100056.34;5181774;28;20477;-73
2023/03/30 02:57:46;;;;;;;5.00;1.30;;;14.90;99.90;;;15.16;87.07;100054.59;5191939;28;20129;-73
2023/03/30 03:00:53;;;;;;;4.05;1.50;;;14.90;99.90;;;15.11;87.32;100061.56;5192813;28;20136;-73
2023/03/30 03:03:37;;;;;;;3.22;1.70;;;14.90;99.90;;;15.10;88.12;100059.81;5207946;28;20410;-74
2023/03/30 03:06:13;;;;;;;5.38;1.17;;;14.90;99.90;;;15.10;88.05;100059.81;5198937;28;20073;-72
2023/03/30 03:08:50;;;;;;;4.40;1.17;;;14.90;99.90;;;15.11;88.69;100051.06;5207128;28;20044;-73
2023/03/30 03:11:32;;;;;;;4.07;1.65;;;14.80;99.90;;;15.12;89.23;100053.69;5206822;28;20449;-74
2023/03/30 03:14:06;;;;;;;3.85;1.20;;;14.90;99.90;;;15.14;88.82;100062.47;5207088;28;20048;-73
2023/03/30 03:16:41;;;;;;;2.55;1.20;;;14.90;99.90;;;15.13;88.87;100065.09;5202800;28;20052;-72
2023/03/30 03:19:19;;;;;;;4.35;1.50;;;14.90;99.90;;;15.13;89.25;100059.84;5202698;28;20565;-74
2023/03/30 03:21:54;;;;;;;3.08;1.27;;;14.90;99.90;;;15.11;89.78;100066.81;5202018;28;20099;-72
2023/03/30 03:24:26;;;;;;;2.85;1.50;;;14.90;99.90;;;15.12;91.14;100058.06;5206346;28;20041;-73
2023/03/30 03:27:17;;;;;;;5.55;1.42;;;14.90;99.90;;;15.16;91.44;100062.47;5197321;28;20169;-73
2023/03/30 03:30:16;;;;;;;3.33;1.35;;;14.90;99.90;;;15.14;91.61;100040.59;5188343;28;20141;-74
2023/03/30 03:32:55;;;;;;;3.40;1.38;;;14.90;99.90;;;15.15;91.36;100037.09;5207648;28;20149;-73
2023/03/30 03:35:30;;;;;;;4.97;1.50;;;14.90;99.90;;;15.12;91.59;100037.06;5211072;28;20058;-73
2023/03/30 03:38:05;;;;;;;3.33;1.73;;;14.90;99.90;;;15.10;91.51;100039.69;5199236;28;20100;-72
2023/03/30 03:40:37;;;;;;;4.15;1.80;;;14.90;99.90;;;15.08;91.76;100040.59;5202782;28;20045;-73
2023/03/30 03:43:10;;;;;;;4.28;1.55;;;14.90;99.90;;;15.06;91.86;100042.31;5200669;28;20050;-74
2023/03/30 03:45:42;;;;;;;3.17;1.42;;;14.80;99.90;;;15.05;91.76;100040.56;5206243;28;20501;-73
2023/03/30 03:48:17;;;;;;;3.33;1.42;;;14.80;99.90;;;15.02;91.41;100043.19;5205424;28;20038;-73
2023/03/30 03:50:57;;;;;;;3.65;1.40;;;14.80;99.90;;;15.00;91.85;100052.78;5206844;28;20401;-72
2023/03/30 03:53:30;;;;;;;4.22;1.55;;;14.80;99.90;;;14.99;92.33;100051.00;5214068;28;20048;-73
2023/03/30 03:56:07;;;;;;;4.43;1.85;;;14.80;99.90;;;14.99;92.66;100045.75;5205382;28;20048;-72
2023/03/30 04:01:21;;;;;;;4.68;2.22;;;14.80;99.90;;;14.95;93.36;100034.41;5205536;28;20061;-68
2023/03/30 04:03:55;;;;;;;3.08;1.65;;;14.70;99.90;;;14.93;93.22;100038.72;5189532;28;20080;-68
2023/03/30 04:06:27;;;;;;;4.50;1.90;;;14.70;99.90;;;14.91;93.46;100032.63;5189418;28;20041;-68
2023/03/30 04:09:00;;;;;;;4.03;1.67;;;14.70;99.90;;;14.88;93.69;100033.50;5206974;28;20116;-69
2023/03/30 04:12:02;;;;;;;4.80;1.65;;;14.70;99.90;;;14.86;94.29;100029.97;5118397;28;20054;-67
2023/03/30 04:14:44;;;;;;;5.03;1.63;;;14.60;99.90;;;14.85;94.80;100030.84;5205960;28;20049;-68
2023/03/30 04:17:40;;;;;;;5.80;2.35;;;14.60;99.90;;;14.85;95.59;100037.81;5189247;28;20052;-67
2023/03/30 04:20:51;;;;;;;5.07;2.15;;;14.60;99.90;;;14.84;96.31;100029.09;5207112;28;20049;-70
2023/03/30 04:23:44;;;;;;;6.35;2.03;;;14.60;99.90;;;14.83;96.59;100014.22;5189550;28;20060;-69
2023/03/30 04:26:48;;;;;;;7.35;2.40;;;14.60;99.90;;;14.81;97.29;100029.09;5173945;28;20061;-66
2023/03/30 04:29:39;;;;;;;5.53;2.05;;;14.60;99.90;;;14.80;97.50;100040.44;5207094;28;20505;-70
2023/03/30 04:32:33;;;;;;;5.20;2.08;;;14.60;99.90;;;14.79;97.67;100049.16;5207607;28;20572;-69
2023/03/30 04:35:33;;;;;;;4.95;1.70;;;14.60;99.90;;;14.77;98.04;100031.66;5203220;28;20165;-69
2023/03/30 04:38:29;;;;;;;6.70;2.13;;;14.50;99.90;;;14.77;98.30;100034.28;5198856;28;20050;-68
2023/03/30 04:41:32;;;;;;;7.00;2.72;;;14.50;99.90;;;14.76;98.94;100032.53;5201837;28;20053;-70
2023/03/30 04:44:21;;;;;;;5.43;2.28;;;14.50;99.90;;;14.75;99.23;100036.03;5205369;28;20164;-69
2023/03/30 04:47:09;;;;;;;;;;;14.50;99.90;;;14.73;99.58;100036.00;5206239;28;20062;-69
2023/03/30 04:50:15;;;;;;;;;;;14.50;99.90;;;14.73;99.49;100033.38;5189454;28;20435;-69
2023/03/30 04:53:06;;;;;;;5.70;2.17;;;14.50;99.90;;;14.72;99.61;100031.63;5206955;28;20055;-68
2023/03/30 04:56:07;;;;;;;5.70;1.75;;;14.50;99.90;;;14.72;100.00;100023.75;5203042;28;20441;-68
2023/03/30 04:59:00;;;;;;;4.28;1.77;;;14.50;99.90;;;14.73;100.00;100030.75;5188591;28;20049;-67
2023/03/30 05:01:32;;;;;;;4.28;1.92;;;14.50;99.90;;;14.71;100.00;100027.25;5207059;28;20080;-68
2023/03/30 05:04:28;;;;;;;4.13;1.83;;;14.50;99.90;;;14.72;100.00;100036.88;5188763;28;20410;-68
2023/03/30 05:07:35;;;;;;;3.78;1.73;;;14.50;99.90;;;14.72;100.00;100026.38;5103533;29;20072;-68
2023/03/30 05:10:36;;;;;;;3.95;1.83;;;14.50;99.90;;;14.72;100.00;100031.63;5135371;28;20053;-69
2023/03/30 05:13:30;;;;;;;5.18;1.35;;;14.50;99.90;;;14.71;100.00;100037.75;5205512;28;20122;-68
2023/03/30 05:16:35;;;;;;;5.80;1.67;;;14.50;99.90;;;14.73;100.00;100045.63;5151595;28;20514;-68
2023/03/30 05:19:19;;;;;;;5.75;2.00;;;14.50;99.90;;;14.73;100.00;100043.88;5206517;28;20132;-69
2023/03/30 05:22:10;;;;;;;4.03;2.00;;;14.50;99.90;;;14.71;100.00;100050.88;5206068;28;20122;-69
2023/03/30 05:24:42;;;;;;;5.70;1.80;;;14.50;99.90;;;14.71;100.00;100044.75;5206651;28;20053;-69
2023/03/30 05:27:23;;;;;;;3.30;1.60;;;14.50;99.90;;;14.69;100.00;100044.75;5188544;28;20053;-67
2023/03/30 05:30:11;;;;;;;3.90;1.40;;;14.50;99.90;;;14.70;100.00;100049.13;5187965;28;20077;-70
2023/03/30 05:33:08;;;;;;;3.35;1.63;;;14.50;99.90;;;14.69;100.00;100056.97;5204634;28;20136;-69
2023/03/30 05:35:59;;;;;;;4.55;1.60;;;14.40;99.90;;;14.67;100.00;100054.34;5206966;28;20049;-69
2023/03/30 05:39:06;;;;;;;5.30;1.60;;;14.40;99.90;;;14.65;100.00;100059.56;5142913;28;20043;-70
2023/03/30 05:41:54;;;;;;;2.85;1.33;;;14.50;99.90;;;14.63;100.00;100063.94;5185900;28;20136;-69
2023/03/30 05:44:42;;;;;;;4.18;1.70;;;14.40;99.90;;;14.64;100.00;100067.44;5179774;28;20044;-69
2023/03/30 05:47:35;;;;;;;4.93;1.70;;;14.40;99.90;;;14.64;100.00;100072.69;5197696;28;20053;-68
2023/03/30 05:50:10;;;;;;;3.25;1.80;;;14.40;99.90;;;14.63;100.00;100081.41;5189124;28;20132;-70
2023/03/30 05:52:54;;;;;;;3.05;2.00;;;14.40;99.90;;;14.62;100.00;100083.16;5181920;28;20100;-70
2023/03/30 05:55:49;;;;;;;8.05;2.55;;;14.40;99.90;;;14.62;100.00;100077.94;5146992;28;20069;-69
2023/03/30 05:58:21;;;;;;;4.80;1.92;;;14.40;99.90;;;14.65;100.00;100066.56;5192321;28;20505;-69
2023/03/30 06:01:19;;;;;;;4.38;1.73;;;14.40;99.90;;;14.64;100.00;100075.31;5181909;28;20509;-69
2023/03/30 06:03:55;;;;;;;4.63;1.70;;;14.40;99.90;;;14.68;100.00;100063.97;5190617;28;20041;-58
2023/03/30 06:06:27;;;;;;;5.65;2.20;;;14.50;99.90;;;14.70;100.00;100069.22;5182593;28;20049;-58
2023/03/30 06:09:01;;;;;;;5.25;2.05;;;14.50;99.90;;;14.70;100.00;100075.34;5182619;28;20038;-59
2023/03/30 06:11:33;;;;;;;6.40;1.90;;;14.50;99.90;;;14.71;100.00;100069.22;5183092;28;20041;-59
2023/03/30 06:14:13;;;;;;;6.65;2.20;;;14.40;99.90;;;14.72;100.00;100065.72;5180283;28;20140;-59
2023/03/30 06:16:50;;;;;;;5.88;1.75;;;14.50;99.90;;;14.71;100.00;100061.34;5186568;28;20042;-60
2023/03/30 06:19:24;;;;;;;4.38;1.60;;;14.50;99.90;;;14.73;100.00;100062.22;5194264;28;20104;-59
2023/03/30 06:21:57;;;;;;;4.85;1.58;;;14.50;99.90;;;14.74;100.00;100066.63;5169227;28;20556;-58
2023/03/30 06:24:53;;;;;;;4.07;1.83;;;14.50;99.90;;;14.75;99.36;100067.50;5180990;28;20054;-59
2023/03/30 06:27:26;;;;;;;4.65;1.73;;;14.50;99.90;;;14.74;99.16;100076.25;5195072;28;20048;-58
2023/03/30 06:29:58;;;;;;;5.80;1.85;;;14.50;99.90;;;14.76;99.05;100080.63;5193518;28;20051;-58
2023/03/30 06:32:30;;;;;;;4.22;2.30;;;14.50;99.90;;;14.75;98.65;100084.13;5207207;28;20051;-58
2023/03/30 06:35:07;;;;;;;;;;;14.50;99.90;;;14.74;98.24;100082.38;5225044;28;20673;-57
2023/03/30 06:37:39;;;;;;;4.75;1.48;;;14.50;99.90;;;14.74;97.70;100087.63;5224927;28;19920;-59
2023/03/30 06:40:13;;;;;;;2.88;1.50;;;14.50;99.90;;;14.74;97.56;100092.88;5207095;28;20044;-57
2023/03/30 06:42:46;;;;;;;4.20;1.60;;;14.50;99.90;;;14.74;97.77;100092.88;5207040;28;20094;-59
2023/03/30 06:45:34;;;;;;;3.60;1.38;;;14.50;99.90;;;14.74;97.45;100095.50;5203494;28;20096;-58
2023/03/30 06:48:07;;;;;;;2.50;1.27;;;14.50;99.90;;;14.75;97.62;100096.38;5204506;28;20113;-58
2023/03/30 06:50:45;;;;;;;4.53;1.58;;;14.50;99.90;;;14.79;97.76;100101.63;5175628;28;20068;-57
2023/03/30 06:53:23;;;;;;;3.80;1.67;;;14.50;99.90;;;14.80;97.60;100103.41;5225016;28;20055;-59
2023/03/30 06:55:59;;;;;;;3.58;1.60;;;14.50;99.90;;;14.82;97.48;100096.41;5198411;28;20052;-54
2023/03/30 06:58:33;;;;;;;3.92;1.50;;;14.60;99.90;;;14.88;98.18;100099.09;5186945;28;20049;-54
2023/03/30 07:01:13;;;;;;;6.68;1.70;;;14.60;99.90;;;14.99;98.44;100095.63;5188003;28;20137;-55
2023/03/30 07:04:06;;;;;;;4.03;1.55;;;14.60;99.90;;;15.02;97.71;100099.16;5173302;28;20144;-56
2023/03/30 07:06:58;;;;;;;5.80;1.77;;;14.70;99.90;;;15.09;97.05;100110.56;5183592;28;20120;-55
2023/03/30 07:09:30;;;;;;;3.65;1.92;;;14.80;99.90;;;15.09;96.70;100111.44;5165768;28;20502;-54
2023/03/30 07:12:02;;;;;;;7.68;1.65;;;14.80;99.90;;;15.09;96.49;100089.56;5198666;28;20046;-54
2023/03/30 07:14:35;;;;;;;2.80;1.40;;;14.80;99.90;;;15.09;96.62;100100.94;5174559;28;20038;-54
2023/03/30 07:17:07;;;;;;;4.70;1.60;;;14.80;99.90;;;15.07;96.33;100096.56;5165480;28;20054;-53
2023/03/30 07:19:39;;;;;;;4.45;1.45;;;14.80;99.90;;;15.05;95.81;100114.03;5187251;28;20042;-53
2023/03/30 07:22:13;;;;;;;6.60;2.00;;;14.80;99.90;;;15.10;96.54;100101.81;5169264;28;20506;-54
2023/03/30 07:24:45;;;;;;;3.88;1.40;;;14.80;99.90;;;15.11;96.88;100099.19;5173816;28;20129;-54
2023/03/30 07:27:17;;;;;;;3.22;1.48;;;14.80;99.90;;;15.14;97.30;100099.22;5171290;28;20046;-55
2023/03/30 07:29:51;;;;;;;4.65;1.70;;;14.80;99.90;;;15.22;96.74;100099.28;5177519;28;20033;-57
2023/03/30 07:32:23;;;;;;;4.20;1.83;;;14.90;99.90;;;15.31;94.88;100091.41;5187354;28;20057;-57
2023/03/30 07:34:56;;;;;;;3.88;1.40;;;14.90;99.90;;;15.52;93.48;100089.75;5193977;28;20053;-58
2023/03/30 07:37:31;;;;;;;5.20;1.80;;;15.10;99.90;;;15.69;93.36;100095.97;5192445;28;20108;-54
2023/03/30 07:40:06;;;;;;;4.22;1.45;;;15.30;99.90;;;16.10;92.92;100103.94;5185923;28;20053;-54
2023/03/30 07:42:38;;;;;;;;;;;15.50;99.90;;;16.30;91.37;100114.50;5169823;28;20149;-55
2023/03/30 07:45:12;;;;;;;4.97;1.50;;;15.80;99.90;;;16.42;90.76;100114.50;5195489;28;19922;-54
2023/03/30 07:47:44;;;;;;;3.47;1.25;;;15.90;99.90;;;16.46;88.92;100113.63;5176861;28;20073;-55
2023/03/30 07:50:16;;;;;;;2.85;1.05;;;16.00;99.90;;;16.42;88.64;100109.22;5177183;28;20099;-55
2023/03/30 07:52:52;;;;;;;3.42;1.13;;;16.00;99.90;;;16.38;88.46;100122.41;5174279;28;20077;-55
2023/03/30 07:55:27;;;;;;;2.92;1.20;;;16.00;99.90;;;16.29;87.68;100112.72;5179966;28;20053;-54
2023/03/30 07:58:06;;;;;;;2.85;1.25;;;15.90;99.90;;;16.20;87.92;100108.34;5176763;28;20042;-54
2023/03/30 08:00:39;;;;;;;2.65;1.50;;;15.90;99.90;;;16.19;88.64;100100.47;5198199;28;20556;-54
2023/03/30 08:03:37;;;;;;;2.83;1.27;;;15.80;99.90;;;16.18;87.99;100101.34;5202555;28;20045;-54
2023/03/30 08:06:11;;;;;;;4.35;1.30;;;15.80;99.90;;;16.28;88.64;100103.09;5180962;28;20510;-55
2023/03/30 08:08:46;;;;;;;;;;;15.80;99.90;;;16.34;88.15;100110.13;5194104;28;20438;-54
2023/03/30 08:11:19;;;;;;;3.10;1.30;;;15.90;99.90;;;16.39;86.63;100114.50;5168452;28;19933;-55
2023/03/30 08:13:51;;;;;;;2.85;1.23;;;15.90;99.90;;;16.74;86.64;100113.63;5169826;28;20056;-54
2023/03/30 08:16:23;;;;;;;1.55;1.05;;;16.10;99.90;;;16.83;85.41;100116.28;5195807;28;20060;-56
2023/03/30 08:18:55;;;;;;;1.70;0.90;;;16.30;99.90;;;16.77;84.98;100122.41;5206359;28;20045;-55
2023/03/30 08:21:28;;;;;;;3.30;1.25;;;16.30;99.90;;;16.73;85.23;100132.94;5189972;28;20065;-55
2023/03/30 08:24:01;;;;;;;3.25;1.10;;;16.30;99.90;;;16.78;84.31;100125.94;5191913;28;20048;-55
2023/03/30 08:26:35;;;;;;;2.85;1.13;;;16.30;99.90;;;16.79;84.93;100125.03;5185699;28;20430;-54
2023/03/30 08:29:07;;;;;;;2.25;1.00;;;16.30;99.90;;;16.80;84.16;100121.53;5193032;28;20049;-56
2023/03/30 08:31:39;;;;;;;2.60;1.13;;;16.30;99.90;;;16.74;84.01;100111.00;5197930;28;20048;-54
2023/03/30 08:34:11;;;;;;;2.65;0.80;;;16.30;99.90;;;16.63;84.80;100118.91;5198433;28;20042;-53
2023/03/30 08:36:43;;;;;;;3.60;1.35;;;16.30;99.90;;;16.52;85.59;100125.91;5197770;28;20073;-55
2023/03/30 08:39:17;;;;;;;1.15;0.90;;;16.20;99.90;;;16.41;85.75;100127.66;5205568;28;20041;-54
2023/03/30 08:42:03;;;;;;;1.45;1.00;;;16.10;99.90;;;16.29;86.04;100134.63;5198585;28;20053;-55
2023/03/30 08:44:37;;;;;;;5.30;0.95;;;16.00;99.90;;;16.17;86.60;100131.13;5197790;28;20045;-57
2023/03/30 08:47:14;;;;;;;3.25;0.82;;;15.90;99.90;;;16.10;87.25;100139.88;5190028;28;20513;-54
2023/03/30 08:49:59;;;;;;;2.00;1.10;;;15.80;99.90;;;16.06;87.67;100136.38;5193338;28;20461;-54
2023/03/30 08:52:31;;;;;;;2.63;1.20;;;15.80;99.90;;;16.08;87.84;100129.34;5195818;28;20521;-55
2023/03/30 08:55:06;;;;;;;3.25;0.95;;;15.80;99.90;;;16.11;87.41;100136.41;5198833;28;20049;-54
2023/03/30 08:57:50;;;;;;;3.67;0.80;;;15.80;99.90;;;16.11;86.96;100142.53;5192971;28;20046;-55
2023/03/30 09:00:33;;;;;;;2.35;0.85;;;15.80;99.90;;;16.15;86.70;100140.75;5193025;28;20579;-55
2023/03/30 09:03:16;;;;;;;2.42;0.88;;;15.80;99.90;;;16.17;86.26;100134.66;5200393;28;20041;-55
2023/03/30 09:05:55;;;;;;;1.95;0.73;;;15.80;99.90;;;16.33;86.86;100151.31;5197909;28;20041;-55
2023/03/30 09:08:30;;;;;;;2.08;0.80;;;15.90;99.90;;;16.67;86.42;100140.81;5169574;28;20503;-55
2023/03/30 09:11:11;;;;;;;2.45;0.90;;;16.10;99.90;;;16.86;84.99;100142.56;5191633;28;20449;-54
2023/03/30 09:13:45;;;;;;;3.70;0.88;;;16.30;99.90;;;16.94;83.95;100146.06;5205393;28;20121;-54
2023/03/30 09:16:23;;;;;;;2.75;0.80;;;16.40;99.90;;;16.96;83.21;100160.13;5197086;28;20046;-54
2023/03/30 09:18:58;;;;;;;2.92;0.82;;;16.50;99.90;;;16.95;83.00;100153.13;5204933;28;20041;-54
2023/03/30 09:21:31;;;;;;;2.42;0.77;;;16.50;99.90;;;16.87;82.78;100160.13;5197278;28;20038;-55
2023/03/30 09:24:13;;;;;;;2.67;0.77;;;16.50;99.90;;;16.81;81.98;100160.13;5198784;28;20049;-55
2023/03/30 09:26:53;;;;;;;3.40;0.88;;;16.40;99.90;;;16.73;81.83;100167.16;5183245;28;20049;-55
2023/03/30 09:29:28;;;;;;;1.27;0.70;;;16.40;99.90;;;16.67;81.70;100167.13;5193757;28;20046;-56
2023/03/30 09:32:05;;;;;;;1.88;1.00;;;16.30;99.90;;;16.65;81.66;100179.41;5199325;28;20062;-55
2023/03/30 09:34:46;;;;;;;2.75;0.80;;;16.30;99.90;;;16.60;81.46;100175.88;5184697;28;20493;-54
2023/03/30 09:37:20;;;;;;;2.40;0.82;;;16.30;99.90;;;16.56;81.16;100172.38;5201363;28;20049;-54
2023/03/30 09:39:52;;;;;;;1.10;0.70;;;16.20;99.90;;;16.57;80.50;100165.38;5204510;28;20041;-57
2023/03/30 09:42:35;;;;;;;4.40;1.00;;;16.20;99.60;;;16.59;79.15;100174.13;5204891;28;20133;-57
2023/03/30 09:45:14;;;;;;;4.72;1.10;;;16.20;99.10;;;16.63;78.46;100176.78;5205189;28;20479;-57
2023/03/30 09:47:46;;;;;;;1.60;0.52;;;16.30;98.80;;;16.66;78.04;100181.16;5188381;28;20128;-56
2023/03/30 09:50:23;;;;;;;1.90;0.60;;;16.30;98.50;;;16.70;78.92;100196.13;5196411;28;20529;-55
2023/03/30 09:52:58;;;;;;;4.90;0.85;;;16.30;98.80;;;16.75;79.67;100233.81;5197740;28;20048;-55
2023/03/30 09:55:33;;;;;;;3.97;0.80;;;16.30;99.10;;;16.45;82.94;100318.81;5202819;28;20046;-56
2023/03/30 09:58:18;;;;;;;7.20;0.95;;;16.20;99.90;;;15.36;91.34;100314.66;5198805;28;20060;-54
2023/03/30 10:01:04;;;;;;;2.40;0.50;;;15.40;99.90;;;14.20;99.10;100343.16;5215715;23;20529;-81
2023/03/30 10:03:37;;;;;;;4.60;0.90;;;14.40;99.90;;;13.54;100.00;100333.50;5198653;28;20052;-80
2023/03/30 10:06:13;;;;;;;2.03;0.70;;;13.70;99.90;;;13.13;100.00;100317.97;5190429;28;20049;-81
2023/03/30 10:08:53;;;;;;;2.95;1.05;;;13.30;99.90;;;12.75;100.00;100336.47;5178946;28;20501;-80
2023/03/30 10:11:36;;;;;;;5.00;0.88;;;12.90;99.90;;;12.52;100.00;100334.25;5190958;28;20506;-80
2023/03/30 10:14:41;;;;;;;3.20;1.40;;;12.60;99.90;;;12.28;100.00;100332.06;5191118;28;20054;-81
2023/03/30 10:17:21;;;;;;;1.73;0.73;;;12.40;99.90;;;12.12;100.00;100326.50;5202917;28;20054;-80
2023/03/30 10:20:00;;;;;;;2.97;1.00;;;12.20;99.90;;;12.05;100.00;100321.13;5191606;28;20037;-81
2023/03/30 10:22:37;;;;;;;3.65;1.33;;;12.10;99.90;;;12.08;100.00;100313.38;5191303;28;20045;-82
2023/03/30 10:25:20;;;;;;;3.10;0.65;;;12.10;99.90;;;12.21;100.00;100311.03;5190927;28;20391;-82
2023/03/30 10:27:55;;;;;;;4.43;1.02;;;12.10;99.90;;;12.35;100.00;100308.69;5195283;28;20072;-83
2023/03/30 10:30:30;;;;;;;2.00;0.80;;;12.30;99.90;;;12.47;100.00;100297.59;5188022;28;20375;-81
2023/03/30 10:33:03;;;;;;;3.17;0.60;;;12.40;99.90;;;12.54;100.00;100299.47;5188912;28;20057;-81
2023/03/30 10:35:38;;;;;;;0.55;0.55;;;12.50;99.90;;;12.61;100.00;100296.13;5169137;28;20050;-80
2023/03/30 10:38:13;;;;;;;1.33;0.60;;;12.50;99.90;;;12.73;100.00;100295.47;5212851;28;20081;-81
2023/03/30 10:40:47;;;;;;;1.13;0.63;;;12.60;99.90;;;12.83;100.00;100286.91;5187175;28;20042;-81
2023/03/30 10:43:31;;;;;;;0.47;0.40;;;12.70;99.90;;;12.95;100.00;100278.41;5194957;28;20133;-81
2023/03/30 10:46:12;;;;;;;0.65;0.40;;;12.80;99.90;;;13.13;100.00;100286.56;5174637;28;20104;-83
2023/03/30 10:49:11;;;;;;;1.33;0.55;;;12.90;99.90;;;13.58;100.00;100307.38;5202959;28;20112;-81
2023/03/30 10:51:58;;;;;;;1.00;0.40;;;13.20;99.90;;;13.89;100.00;100322.63;5195264;28;20152;-81
2023/03/30 10:54:41;;;;;;;1.17;0.35;;;13.50;99.90;;;14.20;100.00;100318.69;5193749;28;20100;-81
2023/03/30 10:57:18;;;;;;;0.30;0.30;;;13.70;99.90;;;14.71;100.00;100321.06;5183555;28;20053;-81
2023/03/30 11:00:18;;;;;;;0.25;0.25;;;14.10;99.90;;;15.15;100.00;100320.63;5198759;28;20034;-82
2023/03/30 11:03:03;;;;;;;1.08;0.43;;;14.50;99.90;;;15.52;100.00;100334.03;5199958;28;20042;-81
2023/03/30 11:05:40;;;;;;;1.17;0.30;;;14.90;99.90;;;15.86;100.00;100337.81;5204100;28;20045;-81
2023/03/30 11:08:15;;;;;;;1.38;0.40;;;15.20;99.90;;;16.19;100.00;100326.59;5211265;28;20072;-81
2023/03/30 11:10:54;;;;;;;2.75;0.52;;;15.50;99.90;;;16.23;100.00;100338.88;5195330;28;20408;-81
2023/03/30 11:13:31;;;;;;;0.70;0.40;;;15.70;99.90;;;16.16;100.00;100334.44;5194132;28;20111;-81